This is the latest recevied weather packets stored in our database for station/object SP6FIG-13. If no packets are shown the sender has not sent any weather packets the latest 10 day(s).
| Time | Temp. | Humidity | Pressure | Rain* | Wind** | Luminosity | Snow |
|---|---|---|---|---|---|---|---|
| 1777903766 | 23.89° C | 35% | 1013.1 hPa | - | - | - | - |
| 1777903466 | 23.89° C | 34% | 1013 hPa | - | - | - | - |
| 1777903165 | 23.89° C | 33% | 1012.8 hPa | - | - | - | - |
| 1777902866 | 23.89° C | 33% | 1013.2 hPa | - | - | - | - |
| 1777902566 | 24.44° C | 34% | 1012.7 hPa | - | - | - | - |
| 1777902266 | 24.44° C | 34% | 1013 hPa | - | - | - | - |
| 1777901966 | 24.44° C | 35% | 1013.2 hPa | - | - | - | - |
| 1777901665 | 24.44° C | 32% | 1012.3 hPa | - | - | - | - |
| 1777901366 | 23.89° C | 36% | 1012.7 hPa | - | - | - | - |
| 1777901065 | 23.89° C | 39% | 1013 hPa | - | - | - | - |
| 1777900766 | 23.89° C | 36% | 1013.1 hPa | - | - | - | - |
| 1777900465 | 23.89° C | 35% | 1013 hPa | - | - | - | - |
| 1777900165 | 23.89° C | 35% | 1013 hPa | - | - | - | - |
| 1777899866 | 23.89° C | 34% | 1013 hPa | - | - | - | - |
| 1777899565 | 23.89° C | 38% | 1013.6 hPa | - | - | - | - |
| 1777899265 | 23.89° C | 37% | 1013.2 hPa | - | - | - | - |
| 1777898965 | 23.89° C | 37% | 1013.6 hPa | - | - | - | - |
| 1777898666 | 23.89° C | 35% | 1013.2 hPa | - | - | - | - |
| 1777898365 | 23.89° C | 35% | 1013.6 hPa | - | - | - | - |
| 1777898065 | 23.89° C | 34% | 1013.3 hPa | - | - | - | - |
| 1777897765 | 23.89° C | 35% | 1013.5 hPa | - | - | - | - |
| 1777897465 | 23.89° C | 35% | 1013.2 hPa | - | - | - | - |
| 1777897165 | 23.33° C | 35% | 1013.4 hPa | - | - | - | - |
| 1777896865 | 23.33° C | 35% | 1013.7 hPa | - | - | - | - |
| 1777896565 | 23.33° C | 35% | 1013.8 hPa | - | - | - | - |
* Rain since midnight (hover to see other rain measurements)
** Current wind speed in m/s (hover to see current wind gust speed)